sensor_id;sensor_type;location;lat;lon;timestamp;P1;durP1;ratioP1;P2;durP2;ratioP2
4359;SDS011;2193;47.980;7.660;2023-03-01T00:00:36;31.07;;;17.27;;
4359;SDS011;2193;47.980;7.660;2023-03-01T00:03:01;31.00;;;17.37;;
4359;SDS011;2193;47.980;7.660;2023-03-01T00:05:27;31.00;;;18.40;;
4359;SDS011;2193;47.980;7.660;2023-03-01T00:07:52;31.90;;;17.00;;
4359;SDS011;2193;47.980;7.660;2023-03-01T00:10:18;30.23;;;17.67;;
4359;SDS011;2193;47.980;7.660;2023-03-01T00:12:43;39.33;;;18.30;;
4359;SDS011;2193;47.980;7.660;2023-03-01T00:15:08;32.43;;;18.57;;
4359;SDS011;2193;47.980;7.660;2023-03-01T00:17:33;28.87;;;16.77;;
4359;SDS011;2193;47.980;7.660;2023-03-01T00:19:58;34.33;;;17.87;;
4359;SDS011;2193;47.980;7.660;2023-03-01T00:22:24;30.43;;;17.13;;
4359;SDS011;2193;47.980;7.660;2023-03-01T00:24:49;32.03;;;16.53;;
4359;SDS011;2193;47.980;7.660;2023-03-01T00:27:14;34.50;;;17.80;;
4359;SDS011;2193;47.980;7.660;2023-03-01T00:29:39;31.43;;;17.50;;
4359;SDS011;2193;47.980;7.660;2023-03-01T00:32:04;29.10;;;16.07;;
4359;SDS011;2193;47.980;7.660;2023-03-01T00:34:29;30.43;;;17.60;;
4359;SDS011;2193;47.980;7.660;2023-03-01T00:36:55;30.60;;;17.37;;
4359;SDS011;2193;47.980;7.660;2023-03-01T00:39:20;31.40;;;17.40;;
4359;SDS011;2193;47.980;7.660;2023-03-01T00:41:45;37.53;;;17.57;;
4359;SDS011;2193;47.980;7.660;2023-03-01T00:44:10;31.20;;;17.63;;
4359;SDS011;2193;47.980;7.660;2023-03-01T00:46:36;33.87;;;16.67;;
4359;SDS011;2193;47.980;7.660;2023-03-01T00:49:01;34.43;;;17.37;;
4359;SDS011;2193;47.980;7.660;2023-03-01T00:51:27;31.60;;;16.60;;
4359;SDS011;2193;47.980;7.660;2023-03-01T00:53:54;32.30;;;16.60;;
4359;SDS011;2193;47.980;7.660;2023-03-01T00:56:20;31.50;;;18.88;;
4359;SDS011;2193;47.980;7.660;2023-03-01T00:58:45;30.57;;;17.23;;
4359;SDS011;2193;47.980;7.660;2023-03-01T01:01:21;34.10;;;18.53;;
4359;SDS011;2193;47.980;7.660;2023-03-01T01:03:47;36.33;;;18.48;;
4359;SDS011;2193;47.980;7.660;2023-03-01T01:06:22;36.17;;;18.17;;
4359;SDS011;2193;47.980;7.660;2023-03-01T01:08:48;31.27;;;17.33;;
4359;SDS011;2193;47.980;7.660;2023-03-01T01:11:14;28.50;;;16.83;;
4359;SDS011;2193;47.980;7.660;2023-03-01T01:13:39;33.10;;;19.20;;
4359;SDS011;2193;47.980;7.660;2023-03-01T01:16:05;30.77;;;17.30;;
4359;SDS011;2193;47.980;7.660;2023-03-01T01:18:30;32.80;;;17.42;;
4359;SDS011;2193;47.980;7.660;2023-03-01T01:20:56;34.27;;;19.30;;
4359;SDS011;2193;47.980;7.660;2023-03-01T01:23:21;33.70;;;18.00;;
4359;SDS011;2193;47.980;7.660;2023-03-01T01:25:46;30.93;;;17.73;;
4359;SDS011;2193;47.980;7.660;2023-03-01T01:28:11;34.23;;;18.00;;
4359;SDS011;2193;47.980;7.660;2023-03-01T01:30:37;35.47;;;19.87;;
4359;SDS011;2193;47.980;7.660;2023-03-01T01:33:02;34.23;;;17.73;;
4359;SDS011;2193;47.980;7.660;2023-03-01T01:35:27;30.50;;;15.77;;
4359;SDS011;2193;47.980;7.660;2023-03-01T01:37:52;35.63;;;16.57;;
4359;SDS011;2193;47.980;7.660;2023-03-01T01:40:17;34.37;;;18.13;;
4359;SDS011;2193;47.980;7.660;2023-03-01T01:42:43;32.80;;;18.63;;
4359;SDS011;2193;47.980;7.660;2023-03-01T01:47:52;36.60;;;18.20;;
4359;SDS011;2193;47.980;7.660;2023-03-01T01:50:19;36.80;;;17.90;;
4359;SDS011;2193;47.980;7.660;2023-03-01T01:52:45;30.67;;;17.57;;
4359;SDS011;2193;47.980;7.660;2023-03-01T01:55:24;34.20;;;17.35;;
4359;SDS011;2193;47.980;7.660;2023-03-01T01:57:53;31.58;;;18.27;;
4359;SDS011;2193;47.980;7.660;2023-03-01T02:00:24;33.53;;;17.20;;
4359;SDS011;2193;47.980;7.660;2023-03-01T02:02:50;31.23;;;18.42;;
4359;SDS011;2193;47.980;7.660;2023-03-01T02:05:25;31.52;;;17.30;;
4359;SDS011;2193;47.980;7.660;2023-03-01T02:07:52;33.58;;;17.65;;
4359;SDS011;2193;47.980;7.660;2023-03-01T02:10:17;28.30;;;17.03;;
4359;SDS011;2193;47.980;7.660;2023-03-01T02:12:42;31.97;;;16.50;;
4359;SDS011;2193;47.980;7.660;2023-03-01T02:15:08;34.17;;;16.83;;
4359;SDS011;2193;47.980;7.660;2023-03-01T02:17:33;29.80;;;16.40;;
4359;SDS011;2193;47.980;7.660;2023-03-01T02:22:32;29.65;;;16.20;;
4359;SDS011;2193;47.980;7.660;2023-03-01T02:27:24;34.43;;;15.50;;
4359;SDS011;2193;47.980;7.660;2023-03-01T02:29:51;30.30;;;15.85;;
4359;SDS011;2193;47.980;7.660;2023-03-01T02:32:16;32.10;;;17.27;;
4359;SDS011;2193;47.980;7.660;2023-03-01T02:34:51;30.45;;;17.25;;
4359;SDS011;2193;47.980;7.660;2023-03-01T02:37:16;33.42;;;17.38;;
4359;SDS011;2193;47.980;7.660;2023-03-01T02:39:48;29.80;;;15.70;;
4359;SDS011;2193;47.980;7.660;2023-03-01T02:42:20;27.00;;;15.45;;
4359;SDS011;2193;47.980;7.660;2023-03-01T02:44:46;29.92;;;16.33;;
4359;SDS011;2193;47.980;7.660;2023-03-01T02:47:13;24.42;;;14.40;;
4359;SDS011;2193;47.980;7.660;2023-03-01T02:49:38;28.70;;;15.10;;
4359;SDS011;2193;47.980;7.660;2023-03-01T02:54:42;25.02;;;14.70;;
4359;SDS011;2193;47.980;7.660;2023-03-01T02:57:11;24.17;;;14.23;;
4359;SDS011;2193;47.980;7.660;2023-03-01T02:59:37;31.10;;;16.67;;
4359;SDS011;2193;47.980;7.660;2023-03-01T03:02:16;26.80;;;15.20;;
4359;SDS011;2193;47.980;7.660;2023-03-01T03:04:45;30.52;;;16.15;;
4359;SDS011;2193;47.980;7.660;2023-03-01T03:07:10;29.83;;;15.73;;
4359;SDS011;2193;47.980;7.660;2023-03-01T03:09:35;29.53;;;16.77;;
4359;SDS011;2193;47.980;7.660;2023-03-01T03:12:00;29.03;;;15.63;;
4359;SDS011;2193;47.980;7.660;2023-03-01T03:14:25;31.50;;;16.40;;
4359;SDS011;2193;47.980;7.660;2023-03-01T03:16:51;33.80;;;17.90;;
4359;SDS011;2193;47.980;7.660;2023-03-01T03:19:16;35.63;;;18.40;;
4359;SDS011;2193;47.980;7.660;2023-03-01T03:21:42;30.70;;;17.07;;
4359;SDS011;2193;47.980;7.660;2023-03-01T03:24:07;29.27;;;16.37;;
4359;SDS011;2193;47.980;7.660;2023-03-01T03:26:32;31.87;;;18.13;;
4359;SDS011;2193;47.980;7.660;2023-03-01T03:28:58;31.67;;;17.47;;
4359;SDS011;2193;47.980;7.660;2023-03-01T03:31:23;34.70;;;17.40;;
4359;SDS011;2193;47.980;7.660;2023-03-01T03:33:48;30.03;;;16.40;;
4359;SDS011;2193;47.980;7.660;2023-03-01T03:36:17;34.20;;;16.87;;
4359;SDS011;2193;47.980;7.660;2023-03-01T03:38:42;29.13;;;16.05;;
4359;SDS011;2193;47.980;7.660;2023-03-01T03:41:08;31.03;;;17.50;;
4359;SDS011;2193;47.980;7.660;2023-03-01T03:43:34;32.00;;;16.70;;
4359;SDS011;2193;47.980;7.660;2023-03-01T03:46:00;31.88;;;16.35;;
4359;SDS011;2193;47.980;7.660;2023-03-01T03:48:26;32.73;;;17.23;;
4359;SDS011;2193;47.980;7.660;2023-03-01T03:50:52;31.77;;;17.13;;
4359;SDS011;2193;47.980;7.660;2023-03-01T03:53:18;30.85;;;17.40;;
4359;SDS011;2193;47.980;7.660;2023-03-01T03:55:43;31.37;;;17.47;;
4359;SDS011;2193;47.980;7.660;2023-03-01T03:58:09;37.30;;;19.48;;
4359;SDS011;2193;47.980;7.660;2023-03-01T04:00:36;31.63;;;16.50;;
4359;SDS011;2193;47.980;7.660;2023-03-01T04:03:01;35.67;;;19.17;;
4359;SDS011;2193;47.980;7.660;2023-03-01T04:05:27;31.60;;;16.67;;
4359;SDS011;2193;47.980;7.660;2023-03-01T04:07:52;30.43;;;16.07;;
4359;SDS011;2193;47.980;7.660;2023-03-01T04:10:26;34.15;;;18.27;;
4359;SDS011;2193;47.980;7.660;2023-03-01T04:12:51;33.57;;;17.93;;
4359;SDS011;2193;47.980;7.660;2023-03-01T04:15:17;34.83;;;16.80;;
4359;SDS011;2193;47.980;7.660;2023-03-01T04:17:43;37.97;;;18.13;;
4359;SDS011;2193;47.980;7.660;2023-03-01T04:20:12;35.27;;;17.73;;
4359;SDS011;2193;47.980;7.660;2023-03-01T04:22:38;33.55;;;17.98;;
4359;SDS011;2193;47.980;7.660;2023-03-01T04:25:03;35.50;;;18.67;;
4359;SDS011;2193;47.980;7.660;2023-03-01T04:27:31;33.30;;;17.90;;
4359;SDS011;2193;47.980;7.660;2023-03-01T04:29:56;41.57;;;18.13;;
4359;SDS011;2193;47.980;7.660;2023-03-01T04:32:21;34.63;;;18.63;;
4359;SDS011;2193;47.980;7.660;2023-03-01T04:34:46;38.77;;;17.90;;
4359;SDS011;2193;47.980;7.660;2023-03-01T04:37:11;39.83;;;20.30;;
4359;SDS011;2193;47.980;7.660;2023-03-01T04:39:37;36.27;;;19.00;;
4359;SDS011;2193;47.980;7.660;2023-03-01T04:42:10;43.35;;;20.10;;
4359;SDS011;2193;47.980;7.660;2023-03-01T04:44:35;37.73;;;19.70;;
4359;SDS011;2193;47.980;7.660;2023-03-01T04:47:00;37.63;;;19.23;;
4359;SDS011;2193;47.980;7.660;2023-03-01T04:49:25;35.37;;;18.00;;
4359;SDS011;2193;47.980;7.660;2023-03-01T04:51:52;36.65;;;18.88;;
4359;SDS011;2193;47.980;7.660;2023-03-01T04:54:17;37.23;;;19.37;;
4359;SDS011;2193;47.980;7.660;2023-03-01T04:56:42;38.50;;;19.17;;
4359;SDS011;2193;47.980;7.660;2023-03-01T04:59:07;38.80;;;20.00;;
4359;SDS011;2193;47.980;7.660;2023-03-01T05:01:34;36.13;;;19.17;;
4359;SDS011;2193;47.980;7.660;2023-03-01T05:04:00;37.57;;;18.17;;
4359;SDS011;2193;47.980;7.660;2023-03-01T05:06:27;39.88;;;19.90;;
4359;SDS011;2193;47.980;7.660;2023-03-01T05:08:53;33.83;;;19.40;;
4359;SDS011;2193;47.980;7.660;2023-03-01T05:11:18;38.43;;;18.10;;
4359;SDS011;2193;47.980;7.660;2023-03-01T05:13:43;34.27;;;19.20;;
4359;SDS011;2193;47.980;7.660;2023-03-01T05:16:08;39.53;;;19.67;;
4359;SDS011;2193;47.980;7.660;2023-03-01T05:18:36;36.60;;;18.08;;
4359;SDS011;2193;47.980;7.660;2023-03-01T05:21:11;36.43;;;19.07;;
4359;SDS011;2193;47.980;7.660;2023-03-01T05:23:37;32.53;;;17.73;;
4359;SDS011;2193;47.980;7.660;2023-03-01T05:26:03;37.40;;;20.43;;
4359;SDS011;2193;47.980;7.660;2023-03-01T05:28:29;35.20;;;18.98;;
4359;SDS011;2193;47.980;7.660;2023-03-01T05:30:54;33.20;;;18.47;;
4359;SDS011;2193;47.980;7.660;2023-03-01T05:33:20;38.67;;;19.50;;
4359;SDS011;2193;47.980;7.660;2023-03-01T05:35:47;39.05;;;20.02;;
4359;SDS011;2193;47.980;7.660;2023-03-01T05:38:13;33.20;;;17.70;;
4359;SDS011;2193;47.980;7.660;2023-03-01T05:40:39;36.67;;;19.17;;
4359;SDS011;2193;47.980;7.660;2023-03-01T05:43:04;33.43;;;17.73;;
4359;SDS011;2193;47.980;7.660;2023-03-01T05:45:31;35.73;;;18.73;;
4359;SDS011;2193;47.980;7.660;2023-03-01T05:47:57;42.88;;;18.52;;
4359;SDS011;2193;47.980;7.660;2023-03-01T05:50:23;34.90;;;18.37;;
4359;SDS011;2193;47.980;7.660;2023-03-01T05:52:51;33.05;;;17.55;;
4359;SDS011;2193;47.980;7.660;2023-03-01T05:55:17;32.13;;;18.40;;
4359;SDS011;2193;47.980;7.660;2023-03-01T05:57:42;37.77;;;18.73;;
4359;SDS011;2193;47.980;7.660;2023-03-01T06:00:08;33.40;;;18.37;;
4359;SDS011;2193;47.980;7.660;2023-03-01T06:02:33;37.80;;;18.02;;
4359;SDS011;2193;47.980;7.660;2023-03-01T06:04:59;33.87;;;17.07;;
4359;SDS011;2193;47.980;7.660;2023-03-01T06:07:24;33.20;;;18.50;;
4359;SDS011;2193;47.980;7.660;2023-03-01T06:09:49;31.70;;;17.37;;
4359;SDS011;2193;47.980;7.660;2023-03-01T06:12:14;33.17;;;17.50;;
4359;SDS011;2193;47.980;7.660;2023-03-01T06:14:39;38.20;;;18.33;;
4359;SDS011;2193;47.980;7.660;2023-03-01T06:17:05;34.40;;;18.60;;
4359;SDS011;2193;47.980;7.660;2023-03-01T06:19:30;36.00;;;17.83;;
4359;SDS011;2193;47.980;7.660;2023-03-01T06:21:55;36.50;;;20.57;;
4359;SDS011;2193;47.980;7.660;2023-03-01T06:24:20;36.67;;;19.57;;
4359;SDS011;2193;47.980;7.660;2023-03-01T06:26:45;34.40;;;20.27;;
4359;SDS011;2193;47.980;7.660;2023-03-01T06:29:11;55.47;;;27.17;;
4359;SDS011;2193;47.980;7.660;2023-03-01T06:31:36;47.07;;;22.90;;
4359;SDS011;2193;47.980;7.660;2023-03-01T06:34:01;41.43;;;23.30;;
4359;SDS011;2193;47.980;7.660;2023-03-01T06:36:26;40.40;;;22.07;;
4359;SDS011;2193;47.980;7.660;2023-03-01T06:38:52;40.17;;;21.17;;
4359;SDS011;2193;47.980;7.660;2023-03-01T06:41:17;40.93;;;20.77;;
4359;SDS011;2193;47.980;7.660;2023-03-01T06:43:42;39.10;;;21.57;;
4359;SDS011;2193;47.980;7.660;2023-03-01T06:46:07;34.93;;;20.10;;
4359;SDS011;2193;47.980;7.660;2023-03-01T06:48:33;36.93;;;20.47;;
4359;SDS011;2193;47.980;7.660;2023-03-01T06:50:59;44.70;;;23.83;;
4359;SDS011;2193;47.980;7.660;2023-03-01T06:53:25;35.35;;;20.70;;
4359;SDS011;2193;47.980;7.660;2023-03-01T06:55:54;32.90;;;18.30;;
4359;SDS011;2193;47.980;7.660;2023-03-01T06:58:19;31.63;;;18.45;;
4359;SDS011;2193;47.980;7.660;2023-03-01T07:00:44;35.30;;;19.43;;
4359;SDS011;2193;47.980;7.660;2023-03-01T07:03:10;31.67;;;17.90;;
4359;SDS011;2193;47.980;7.660;2023-03-01T07:05:35;35.10;;;19.10;;
4359;SDS011;2193;47.980;7.660;2023-03-01T07:08:00;29.57;;;16.73;;
4359;SDS011;2193;47.980;7.660;2023-03-01T07:10:25;35.60;;;18.97;;
4359;SDS011;2193;47.980;7.660;2023-03-01T07:12:53;35.17;;;19.33;;
4359;SDS011;2193;47.980;7.660;2023-03-01T07:15:19;34.10;;;16.45;;
4359;SDS011;2193;47.980;7.660;2023-03-01T07:17:44;31.47;;;16.93;;
4359;SDS011;2193;47.980;7.660;2023-03-01T07:20:09;34.33;;;18.20;;
4359;SDS011;2193;47.980;7.660;2023-03-01T07:22:35;35.07;;;17.00;;
4359;SDS011;2193;47.980;7.660;2023-03-01T07:25:00;30.53;;;16.97;;
4359;SDS011;2193;47.980;7.660;2023-03-01T07:27:25;29.97;;;17.70;;
4359;SDS011;2193;47.980;7.660;2023-03-01T07:29:50;30.03;;;17.77;;
4359;SDS011;2193;47.980;7.660;2023-03-01T07:32:15;35.20;;;17.67;;
4359;SDS011;2193;47.980;7.660;2023-03-01T07:34:41;30.77;;;17.00;;
4359;SDS011;2193;47.980;7.660;2023-03-01T07:37:06;28.67;;;17.00;;
4359;SDS011;2193;47.980;7.660;2023-03-01T07:39:31;32.43;;;17.27;;
4359;SDS011;2193;47.980;7.660;2023-03-01T07:41:56;30.60;;;17.60;;
4359;SDS011;2193;47.980;7.660;2023-03-01T07:44:21;29.93;;;16.70;;
4359;SDS011;2193;47.980;7.660;2023-03-01T07:46:47;43.17;;;21.90;;
4359;SDS011;2193;47.980;7.660;2023-03-01T07:49:12;38.90;;;20.00;;
4359;SDS011;2193;47.980;7.660;2023-03-01T07:51:37;30.30;;;18.07;;
4359;SDS011;2193;47.980;7.660;2023-03-01T07:54:02;32.80;;;18.27;;
4359;SDS011;2193;47.980;7.660;2023-03-01T07:56:28;39.30;;;20.30;;
4359;SDS011;2193;47.980;7.660;2023-03-01T07:58:53;40.00;;;20.50;;
4359;SDS011;2193;47.980;7.660;2023-03-01T08:01:19;34.70;;;18.03;;
4359;SDS011;2193;47.980;7.660;2023-03-01T08:03:45;39.03;;;21.75;;
4359;SDS011;2193;47.980;7.660;2023-03-01T08:06:11;34.23;;;19.20;;
4359;SDS011;2193;47.980;7.660;2023-03-01T08:08:37;34.40;;;19.20;;
4359;SDS011;2193;47.980;7.660;2023-03-01T08:11:03;40.13;;;21.30;;
4359;SDS011;2193;47.980;7.660;2023-03-01T08:13:29;32.85;;;18.75;;
4359;SDS011;2193;47.980;7.660;2023-03-01T08:15:54;36.97;;;18.33;;
4359;SDS011;2193;47.980;7.660;2023-03-01T08:18:20;38.93;;;21.40;;
4359;SDS011;2193;47.980;7.660;2023-03-01T08:20:45;37.97;;;19.85;;
4359;SDS011;2193;47.980;7.660;2023-03-01T08:23:10;33.83;;;18.60;;
4359;SDS011;2193;47.980;7.660;2023-03-01T08:25:36;41.27;;;21.57;;
4359;SDS011;2193;47.980;7.660;2023-03-01T08:28:01;30.30;;;17.47;;
4359;SDS011;2193;47.980;7.660;2023-03-01T08:30:26;30.00;;;17.50;;
4359;SDS011;2193;47.980;7.660;2023-03-01T08:32:51;31.03;;;17.87;;
4359;SDS011;2193;47.980;7.660;2023-03-01T08:35:17;32.63;;;19.10;;
4359;SDS011;2193;47.980;7.660;2023-03-01T08:37:42;31.57;;;19.03;;
4359;SDS011;2193;47.980;7.660;2023-03-01T08:40:07;33.37;;;18.50;;
4359;SDS011;2193;47.980;7.660;2023-03-01T08:42:34;35.53;;;19.75;;
4359;SDS011;2193;47.980;7.660;2023-03-01T08:45:00;35.37;;;20.27;;
4359;SDS011;2193;47.980;7.660;2023-03-01T08:47:25;34.30;;;19.90;;
4359;SDS011;2193;47.980;7.660;2023-03-01T08:49:51;38.10;;;21.33;;
4359;SDS011;2193;47.980;7.660;2023-03-01T08:52:16;35.43;;;18.37;;
4359;SDS011;2193;47.980;7.660;2023-03-01T08:54:41;33.97;;;20.93;;
4359;SDS011;2193;47.980;7.660;2023-03-01T08:57:07;34.87;;;18.70;;
4359;SDS011;2193;47.980;7.660;2023-03-01T08:59:32;34.87;;;19.67;;
4359;SDS011;2193;47.980;7.660;2023-03-01T09:02:02;35.13;;;18.77;;
4359;SDS011;2193;47.980;7.660;2023-03-01T09:04:27;39.87;;;20.90;;
4359;SDS011;2193;47.980;7.660;2023-03-01T09:06:52;37.43;;;20.83;;
4359;SDS011;2193;47.980;7.660;2023-03-01T09:09:17;38.10;;;21.30;;
4359;SDS011;2193;47.980;7.660;2023-03-01T09:11:43;36.23;;;20.00;;
4359;SDS011;2193;47.980;7.660;2023-03-01T09:14:10;38.28;;;21.90;;
4359;SDS011;2193;47.980;7.660;2023-03-01T09:16:36;35.10;;;20.60;;
4359;SDS011;2193;47.980;7.660;2023-03-01T09:19:01;35.03;;;18.70;;
4359;SDS011;2193;47.980;7.660;2023-03-01T09:21:27;43.00;;;20.10;;
4359;SDS011;2193;47.980;7.660;2023-03-01T09:23:52;44.87;;;20.87;;
4359;SDS011;2193;47.980;7.660;2023-03-01T09:26:18;59.50;;;28.63;;
4359;SDS011;2193;47.980;7.660;2023-03-01T09:28:47;46.47;;;24.13;;
4359;SDS011;2193;47.980;7.660;2023-03-01T09:31:13;37.08;;;20.83;;
4359;SDS011;2193;47.980;7.660;2023-03-01T09:33:39;34.90;;;19.33;;
4359;SDS011;2193;47.980;7.660;2023-03-01T09:36:06;29.45;;;17.58;;
4359;SDS011;2193;47.980;7.660;2023-03-01T09:38:32;41.83;;;20.10;;
4359;SDS011;2193;47.980;7.660;2023-03-01T09:40:57;31.67;;;18.47;;
4359;SDS011;2193;47.980;7.660;2023-03-01T09:46:09;31.40;;;20.13;;
4359;SDS011;2193;47.980;7.660;2023-03-01T09:49:09;32.45;;;18.83;;
4359;SDS011;2193;47.980;7.660;2023-03-01T09:51:27;31.67;;;19.08;;
4359;SDS011;2193;47.980;7.660;2023-03-01T09:53:54;38.72;;;17.77;;
4359;SDS011;2193;47.980;7.660;2023-03-01T09:56:22;30.60;;;17.60;;
4359;SDS011;2193;47.980;7.660;2023-03-01T10:06:44;37.30;;;19.25;;
4359;SDS011;2193;47.980;7.660;2023-03-01T10:09:14;46.15;;;18.88;;
4359;SDS011;2193;47.980;7.660;2023-03-01T10:11:41;32.13;;;17.77;;
4359;SDS011;2193;47.980;7.660;2023-03-01T10:19:03;37.10;;;18.53;;
4359;SDS011;2193;47.980;7.660;2023-03-01T10:21:29;39.70;;;18.90;;
4359;SDS011;2193;47.980;7.660;2023-03-01T10:23:56;34.47;;;18.50;;
4359;SDS011;2193;47.980;7.660;2023-03-01T10:29:04;33.78;;;17.42;;
4359;SDS011;2193;47.980;7.660;2023-03-01T10:31:43;35.30;;;17.65;;
4359;SDS011;2193;47.980;7.660;2023-03-01T10:34:13;39.75;;;18.45;;
4359;SDS011;2193;47.980;7.660;2023-03-01T10:36:39;34.92;;;19.52;;
4359;SDS011;2193;47.980;7.660;2023-03-01T10:39:11;32.63;;;17.30;;
4359;SDS011;2193;47.980;7.660;2023-03-01T10:41:37;29.13;;;17.42;;
4359;SDS011;2193;47.980;7.660;2023-03-01T10:44:09;25.90;;;16.42;;
4359;SDS011;2193;47.980;7.660;2023-03-01T10:47:00;28.90;;;17.60;;
4359;SDS011;2193;47.980;7.660;2023-03-01T10:49:26;32.35;;;17.45;;
4359;SDS011;2193;47.980;7.660;2023-03-01T10:51:52;29.07;;;15.33;;
4359;SDS011;2193;47.980;7.660;2023-03-01T10:54:31;29.60;;;16.70;;
4359;SDS011;2193;47.980;7.660;2023-03-01T10:57:00;45.23;;;17.10;;
4359;SDS011;2193;47.980;7.660;2023-03-01T10:59:27;28.43;;;16.10;;
4359;SDS011;2193;47.980;7.660;2023-03-01T11:04:36;28.07;;;16.20;;
4359;SDS011;2193;47.980;7.660;2023-03-01T11:07:02;24.80;;;15.80;;
4359;SDS011;2193;47.980;7.660;2023-03-01T11:09:30;24.57;;;15.80;;
4359;SDS011;2193;47.980;7.660;2023-03-01T11:12:02;27.67;;;15.67;;
4359;SDS011;2193;47.980;7.660;2023-03-01T11:14:29;25.10;;;15.50;;
4359;SDS011;2193;47.980;7.660;2023-03-01T11:17:03;25.60;;;15.40;;
4359;SDS011;2193;47.980;7.660;2023-03-01T11:19:29;32.40;;;15.50;;
4359;SDS011;2193;47.980;7.660;2023-03-01T11:22:13;23.90;;;15.20;;
4359;SDS011;2193;47.980;7.660;2023-03-01T11:27:06;26.90;;;16.23;;
4359;SDS011;2193;47.980;7.660;2023-03-01T11:29:40;24.70;;;15.37;;
4359;SDS011;2193;47.980;7.660;2023-03-01T11:32:08;26.23;;;16.33;;
4359;SDS011;2193;47.980;7.660;2023-03-01T11:37:30;26.53;;;15.40;;
4359;SDS011;2193;47.980;7.660;2023-03-01T11:45:39;21.67;;;14.77;;
4359;SDS011;2193;47.980;7.660;2023-03-01T11:50:51;28.57;;;17.77;;
4359;SDS011;2193;47.980;7.660;2023-03-01T11:58:26;28.80;;;17.30;;
4359;SDS011;2193;47.980;7.660;2023-03-01T12:09:47;21.87;;;14.60;;
4359;SDS011;2193;47.980;7.660;2023-03-01T12:17:07;24.43;;;17.33;;
4359;SDS011;2193;47.980;7.660;2023-03-01T12:23:02;25.10;;;17.47;;
4359;SDS011;2193;47.980;7.660;2023-03-01T12:27:46;25.67;;;18.60;;
4359;SDS011;2193;47.980;7.660;2023-03-01T12:30:20;21.97;;;16.63;;
4359;SDS011;2193;47.980;7.660;2023-03-01T12:37:42;24.73;;;18.10;;
4359;SDS011;2193;47.980;7.660;2023-03-01T12:50:22;28.27;;;18.33;;
4359;SDS011;2193;47.980;7.660;2023-03-01T12:52:52;22.87;;;17.63;;
4359;SDS011;2193;47.980;7.660;2023-03-01T12:57:48;27.53;;;19.50;;
4359;SDS011;2193;47.980;7.660;2023-03-01T13:02:56;23.53;;;17.77;;
4359;SDS011;2193;47.980;7.660;2023-03-01T13:05:46;23.17;;;17.43;;
4359;SDS011;2193;47.980;7.660;2023-03-01T13:08:19;24.03;;;17.80;;
4359;SDS011;2193;47.980;7.660;2023-03-01T13:13:12;20.90;;;16.80;;
4359;SDS011;2193;47.980;7.660;2023-03-01T13:15:38;22.97;;;18.00;;
4359;SDS011;2193;47.980;7.660;2023-03-01T13:25:31;23.23;;;17.50;;
4359;SDS011;2193;47.980;7.660;2023-03-01T13:30:41;24.13;;;19.13;;
4359;SDS011;2193;47.980;7.660;2023-03-01T13:35:50;24.30;;;19.57;;
4359;SDS011;2193;47.980;7.660;2023-03-01T13:41:00;27.40;;;20.33;;
4359;SDS011;2193;47.980;7.660;2023-03-01T13:43:29;25.37;;;20.10;;
4359;SDS011;2193;47.980;7.660;2023-03-01T13:45:55;27.03;;;19.10;;
4359;SDS011;2193;47.980;7.660;2023-03-01T13:48:29;27.13;;;19.83;;
4359;SDS011;2193;47.980;7.660;2023-03-01T13:51:02;26.07;;;19.27;;
4359;SDS011;2193;47.980;7.660;2023-03-01T13:53:29;26.33;;;19.27;;
4359;SDS011;2193;47.980;7.660;2023-03-01T13:55:56;29.33;;;19.93;;
4359;SDS011;2193;47.980;7.660;2023-03-01T13:58:26;26.40;;;19.63;;
4359;SDS011;2193;47.980;7.660;2023-03-01T14:01:03;26.83;;;18.60;;
4359;SDS011;2193;47.980;7.660;2023-03-01T14:03:29;26.80;;;19.07;;
4359;SDS011;2193;47.980;7.660;2023-03-01T14:05:59;31.20;;;20.57;;
4359;SDS011;2193;47.980;7.660;2023-03-01T14:08:26;31.80;;;18.87;;
4359;SDS011;2193;47.980;7.660;2023-03-01T14:15:57;32.27;;;19.27;;
4359;SDS011;2193;47.980;7.660;2023-03-01T14:18:39;39.70;;;19.83;;
4359;SDS011;2193;47.980;7.660;2023-03-01T14:21:08;27.33;;;17.90;;
4359;SDS011;2193;47.980;7.660;2023-03-01T14:23:33;25.93;;;18.70;;
4359;SDS011;2193;47.980;7.660;2023-03-01T14:26:00;30.60;;;19.73;;
4359;SDS011;2193;47.980;7.660;2023-03-01T14:28:31;31.20;;;19.50;;
4359;SDS011;2193;47.980;7.660;2023-03-01T14:31:02;29.17;;;19.43;;
4359;SDS011;2193;47.980;7.660;2023-03-01T14:33:34;27.97;;;20.10;;
4359;SDS011;2193;47.980;7.660;2023-03-01T14:36:10;26.23;;;19.67;;
4359;SDS011;2193;47.980;7.660;2023-03-01T14:38:37;28.83;;;20.70;;
4359;SDS011;2193;47.980;7.660;2023-03-01T14:41:03;27.17;;;20.27;;
4359;SDS011;2193;47.980;7.660;2023-03-01T14:43:30;29.90;;;20.50;;
4359;SDS011;2193;47.980;7.660;2023-03-01T14:45:55;29.80;;;20.77;;
4359;SDS011;2193;47.980;7.660;2023-03-01T14:48:21;30.40;;;21.30;;
4359;SDS011;2193;47.980;7.660;2023-03-01T14:50:46;29.50;;;20.40;;
4359;SDS011;2193;47.980;7.660;2023-03-01T14:53:19;31.47;;;20.03;;
4359;SDS011;2193;47.980;7.660;2023-03-01T14:55:46;37.00;;;21.43;;
4359;SDS011;2193;47.980;7.660;2023-03-01T14:58:12;31.83;;;20.37;;
4359;SDS011;2193;47.980;7.660;2023-03-01T15:00:38;32.17;;;20.80;;
4359;SDS011;2193;47.980;7.660;2023-03-01T15:03:07;30.73;;;19.07;;
4359;SDS011;2193;47.980;7.660;2023-03-01T15:05:38;34.17;;;19.60;;
4359;SDS011;2193;47.980;7.660;2023-03-01T15:08:04;31.33;;;20.13;;
4359;SDS011;2193;47.980;7.660;2023-03-01T15:10:30;35.37;;;20.03;;
4359;SDS011;2193;47.980;7.660;2023-03-01T15:12:56;33.93;;;20.10;;
4359;SDS011;2193;47.980;7.660;2023-03-01T15:17:50;35.03;;;21.27;;
4359;SDS011;2193;47.980;7.660;2023-03-01T15:20:18;32.07;;;20.73;;
4359;SDS011;2193;47.980;7.660;2023-03-01T15:22:46;31.20;;;20.90;;
4359;SDS011;2193;47.980;7.660;2023-03-01T15:25:15;34.70;;;22.30;;
4359;SDS011;2193;47.980;7.660;2023-03-01T15:27:44;30.47;;;21.13;;
4359;SDS011;2193;47.980;7.660;2023-03-01T15:30:13;31.43;;;21.27;;
4359;SDS011;2193;47.980;7.660;2023-03-01T15:32:42;31.07;;;21.90;;
4359;SDS011;2193;47.980;7.660;2023-03-01T15:37:51;32.60;;;22.50;;
4359;SDS011;2193;47.980;7.660;2023-03-01T15:40:25;30.93;;;20.67;;
4359;SDS011;2193;47.980;7.660;2023-03-01T15:42:56;30.07;;;21.90;;
4359;SDS011;2193;47.980;7.660;2023-03-01T15:45:23;31.27;;;21.80;;
4359;SDS011;2193;47.980;7.660;2023-03-01T15:47:55;34.87;;;21.87;;
4359;SDS011;2193;47.980;7.660;2023-03-01T15:50:27;30.67;;;21.63;;
4359;SDS011;2193;47.980;7.660;2023-03-01T15:52:54;31.93;;;20.73;;
4359;SDS011;2193;47.980;7.660;2023-03-01T15:55:21;30.40;;;20.03;;
4359;SDS011;2193;47.980;7.660;2023-03-01T15:57:47;33.47;;;21.03;;
4359;SDS011;2193;47.980;7.660;2023-03-01T16:00:13;34.20;;;22.77;;
4359;SDS011;2193;47.980;7.660;2023-03-01T16:02:41;33.20;;;21.33;;
4359;SDS011;2193;47.980;7.660;2023-03-01T16:05:26;34.67;;;22.00;;
4359;SDS011;2193;47.980;7.660;2023-03-01T16:07:52;40.90;;;22.30;;
4359;SDS011;2193;47.980;7.660;2023-03-01T16:10:17;37.87;;;21.90;;
4359;SDS011;2193;47.980;7.660;2023-03-01T16:12:43;36.87;;;21.37;;
4359;SDS011;2193;47.980;7.660;2023-03-01T16:15:16;34.20;;;21.00;;
4359;SDS011;2193;47.980;7.660;2023-03-01T16:17:41;38.57;;;22.20;;
4359;SDS011;2193;47.980;7.660;2023-03-01T16:20:07;33.63;;;21.30;;
4359;SDS011;2193;47.980;7.660;2023-03-01T16:22:32;33.07;;;20.27;;
4359;SDS011;2193;47.980;7.660;2023-03-01T16:24:57;36.93;;;20.70;;
4359;SDS011;2193;47.980;7.660;2023-03-01T16:27:22;33.97;;;20.37;;
4359;SDS011;2193;47.980;7.660;2023-03-01T16:29:48;43.33;;;21.10;;
4359;SDS011;2193;47.980;7.660;2023-03-01T16:32:13;35.70;;;20.53;;
4359;SDS011;2193;47.980;7.660;2023-03-01T16:34:38;38.53;;;21.33;;
4359;SDS011;2193;47.980;7.660;2023-03-01T16:37:03;35.27;;;20.20;;
4359;SDS011;2193;47.980;7.660;2023-03-01T16:39:28;37.87;;;22.70;;
4359;SDS011;2193;47.980;7.660;2023-03-01T16:41:54;40.13;;;22.37;;
4359;SDS011;2193;47.980;7.660;2023-03-01T16:44:19;36.80;;;21.63;;